sensor_id;sensor_type;location;lat;lon;timestamp;pressure;altitude;pressure_sealevel;temperature;humidity
12666;BME280;58531;59.050;17.416;2023-02-10T00:01:01;100070.84;;;1.79;62.69
12666;BME280;58531;59.050;17.416;2023-02-10T00:03:28;100082.94;;;1.73;62.03
12666;BME280;58531;59.050;17.416;2023-02-10T00:05:55;100086.38;;;1.63;63.77
12666;BME280;58531;59.050;17.416;2023-02-10T00:08:22;100096.59;;;1.54;63.05
12666;BME280;58531;59.050;17.416;2023-02-10T00:10:48;100099.66;;;1.49;63.83
12666;BME280;58531;59.050;17.416;2023-02-10T00:13:16;100113.19;;;1.48;62.38
12666;BME280;58531;59.050;17.416;2023-02-10T00:15:43;100112.31;;;1.65;60.50
12666;BME280;58531;59.050;17.416;2023-02-10T00:18:11;100142.41;;;1.64;62.24
12666;BME280;58531;59.050;17.416;2023-02-10T00:20:38;100124.38;;;1.59;63.16
12666;BME280;58531;59.050;17.416;2023-02-10T00:23:04;100112.09;;;1.42;62.22
12666;BME280;58531;59.050;17.416;2023-02-10T00:25:32;100121.13;;;1.37;62.25
12666;BME280;58531;59.050;17.416;2023-02-10T00:27:59;100123.84;;;1.23;62.82
12666;BME280;58531;59.050;17.416;2023-02-10T00:30:26;100133.28;;;1.14;62.29
12666;BME280;58531;59.050;17.416;2023-02-10T00:32:53;100131.38;;;1.18;62.04
12666;BME280;58531;59.050;17.416;2023-02-10T00:35:21;100145.31;;;1.08;61.33
12666;BME280;58531;59.050;17.416;2023-02-10T00:37:48;100142.31;;;1.13;60.55
12666;BME280;58531;59.050;17.416;2023-02-10T00:40:15;100134.41;;;1.13;59.92
12666;BME280;58531;59.050;17.416;2023-02-10T00:42:42;100141.53;;;1.16;60.08
12666;BME280;58531;59.050;17.416;2023-02-10T00:45:09;100158.09;;;1.13;59.51
12666;BME280;58531;59.050;17.416;2023-02-10T00:47:36;100158.13;;;0.99;61.86
12666;BME280;58531;59.050;17.416;2023-02-10T00:50:03;100163.75;;;1.01;60.91
12666;BME280;58531;59.050;17.416;2023-02-10T00:52:32;100158.56;;;0.80;62.13
12666;BME280;58531;59.050;17.416;2023-02-10T00:54:58;100163.81;;;0.84;61.57
12666;BME280;58531;59.050;17.416;2023-02-10T00:57:25;100166.81;;;0.86;61.60
12666;BME280;58531;59.050;17.416;2023-02-10T00:59:52;100180.34;;;0.81;60.02
12666;BME280;58531;59.050;17.416;2023-02-10T01:02:19;100181.81;;;0.92;59.11
12666;BME280;58531;59.050;17.416;2023-02-10T01:04:46;100189.31;;;0.90;60.38
12666;BME280;58531;59.050;17.416;2023-02-10T01:07:12;100185.63;;;0.70;61.51
12666;BME280;58531;59.050;17.416;2023-02-10T01:09:41;100183.75;;;0.67;60.80
12666;BME280;58531;59.050;17.416;2023-02-10T01:12:08;100190.53;;;0.61;62.13
12666;BME280;58531;59.050;17.416;2023-02-10T01:14:34;100199.53;;;0.39;62.56
12666;BME280;58531;59.050;17.416;2023-02-10T01:17:01;100205.91;;;0.73;60.05
12666;BME280;58531;59.050;17.416;2023-02-10T01:19:28;100209.66;;;0.72;59.54
12666;BME280;58531;59.050;17.416;2023-02-10T01:21:55;100214.91;;;0.65;60.27
12666;BME280;58531;59.050;17.416;2023-02-10T01:24:22;100232.94;;;0.56;60.19
12666;BME280;58531;59.050;17.416;2023-02-10T01:26:50;100237.06;;;0.47;61.13
12666;BME280;58531;59.050;17.416;2023-02-10T01:29:17;100259.94;;;0.36;60.51
12666;BME280;58531;59.050;17.416;2023-02-10T01:31:44;100256.56;;;0.42;59.27
12666;BME280;58531;59.050;17.416;2023-02-10T01:34:11;100250.19;;;0.43;61.04
12666;BME280;58531;59.050;17.416;2023-02-10T01:36:38;100260.31;;;0.34;60.45
12666;BME280;58531;59.050;17.416;2023-02-10T01:39:04;100265.19;;;0.32;60.28
12666;BME280;58531;59.050;17.416;2023-02-10T01:41:31;100277.19;;;0.26;60.72
12666;BME280;58531;59.050;17.416;2023-02-10T01:44:02;100276.44;;;0.26;60.90
12666;BME280;58531;59.050;17.416;2023-02-10T01:46:30;100277.19;;;0.33;61.37
12666;BME280;58531;59.050;17.416;2023-02-10T01:49:01;100290.69;;;0.28;59.66
12666;BME280;58531;59.050;17.416;2023-02-10T01:51:33;100296.75;;;0.50;57.51
12666;BME280;58531;59.050;17.416;2023-02-10T01:54:04;100277.19;;;0.40;57.54
12666;BME280;58531;59.050;17.416;2023-02-10T01:56:33;100290.34;;;0.40;58.52
12666;BME280;58531;59.050;17.416;2023-02-10T01:59:01;100294.44;;;0.27;59.07
12666;BME280;58531;59.050;17.416;2023-02-10T02:01:28;100298.56;;;0.28;57.94
12666;BME280;58531;59.050;17.416;2023-02-10T02:03:55;100313.22;;;0.22;59.36
12666;BME280;58531;59.050;17.416;2023-02-10T02:06:22;100315.44;;;0.27;58.35
12666;BME280;58531;59.050;17.416;2023-02-10T02:08:49;100315.03;;;0.08;59.44
12666;BME280;58531;59.050;17.416;2023-02-10T02:11:20;100321.34;;;-0.14;60.13
12666;BME280;58531;59.050;17.416;2023-02-10T02:14:00;100321.03;;;0.01;58.60
12666;BME280;58531;59.050;17.416;2023-02-10T02:16:41;100339.69;;;-0.21;60.38
12666;BME280;58531;59.050;17.416;2023-02-10T02:19:25;100345.28;;;-0.26;60.18
12666;BME280;58531;59.050;17.416;2023-02-10T02:22:10;100356.91;;;-0.23;59.16
12666;BME280;58531;59.050;17.416;2023-02-10T02:25:02;100361.03;;;-0.22;59.12
12666;BME280;58531;59.050;17.416;2023-02-10T02:28:13;100360.69;;;-0.17;57.77
12666;BME280;58531;59.050;17.416;2023-02-10T02:31:07;100362.59;;;-0.11;57.50
12666;BME280;58531;59.050;17.416;2023-02-10T02:33:46;100369.31;;;-0.13;57.66
12666;BME280;58531;59.050;17.416;2023-02-10T02:36:19;100369.34;;;-0.10;57.63
12666;BME280;58531;59.050;17.416;2023-02-10T02:38:48;100378.66;;;-0.19;58.56
12666;BME280;58531;59.050;17.416;2023-02-10T02:41:22;100382.09;;;-0.08;57.30
12666;BME280;58531;59.050;17.416;2023-02-10T02:43:48;100381.00;;;-0.01;55.93
12666;BME280;58531;59.050;17.416;2023-02-10T02:46:22;100391.81;;;-0.12;57.58
12666;BME280;58531;59.050;17.416;2023-02-10T02:48:57;100404.13;;;-0.23;57.35
12666;BME280;58531;59.050;17.416;2023-02-10T02:51:36;100401.50;;;-0.23;57.87
12666;BME280;58531;59.050;17.416;2023-02-10T02:54:13;100417.31;;;-0.13;56.13
12666;BME280;58531;59.050;17.416;2023-02-10T02:56:45;100415.78;;;-0.17;56.10
12666;BME280;58531;59.050;17.416;2023-02-10T02:59:18;100415.47;;;-0.05;56.10
12666;BME280;58531;59.050;17.416;2023-02-10T03:01:50;100417.25;;;-0.23;57.11
12666;BME280;58531;59.050;17.416;2023-02-10T03:04:21;100411.56;;;-0.39;57.90
12666;BME280;58531;59.050;17.416;2023-02-10T03:06:48;100414.19;;;-0.39;57.52
12666;BME280;58531;59.050;17.416;2023-02-10T03:09:15;100413.50;;;-0.29;57.04
12666;BME280;58531;59.050;17.416;2023-02-10T03:11:42;100425.78;;;-0.40;57.14
12666;BME280;58531;59.050;17.416;2023-02-10T03:14:09;100424.63;;;-0.46;58.03
12666;BME280;58531;59.050;17.416;2023-02-10T03:16:36;100431.06;;;-0.33;57.34
12666;BME280;58531;59.050;17.416;2023-02-10T03:19:02;100435.97;;;-0.28;57.20
12666;BME280;58531;59.050;17.416;2023-02-10T03:21:31;100438.94;;;-0.33;57.48
12666;BME280;58531;59.050;17.416;2023-02-10T03:23:57;100444.16;;;-0.40;57.73
12666;BME280;58531;59.050;17.416;2023-02-10T03:26:26;100450.97;;;-0.29;56.11
12666;BME280;58531;59.050;17.416;2023-02-10T03:28:53;100440.47;;;-0.25;56.01
12666;BME280;58531;59.050;17.416;2023-02-10T03:31:20;100457.69;;;-0.31;57.76
12666;BME280;58531;59.050;17.416;2023-02-10T03:33:47;100447.94;;;-0.34;57.34
12666;BME280;58531;59.050;17.416;2023-02-10T03:36:14;100431.03;;;-0.40;56.73
12666;BME280;58531;59.050;17.416;2023-02-10T03:38:42;100433.53;;;-0.58;58.92
12666;BME280;58531;59.050;17.416;2023-02-10T03:41:10;100449.38;;;-0.40;56.91
12666;BME280;58531;59.050;17.416;2023-02-10T03:43:38;100461.72;;;-0.44;58.04
12666;BME280;58531;59.050;17.416;2023-02-10T03:46:07;100462.06;;;-0.49;57.94
12666;BME280;58531;59.050;17.416;2023-02-10T03:48:35;100472.59;;;-0.42;57.61
12666;BME280;58531;59.050;17.416;2023-02-10T03:51:04;100477.06;;;-0.46;57.85
12666;BME280;58531;59.050;17.416;2023-02-10T03:53:31;100470.25;;;-0.54;58.16
12666;BME280;58531;59.050;17.416;2023-02-10T03:56:00;100460.31;;;-0.31;56.19
12666;BME280;58531;59.050;17.416;2023-02-10T03:58:27;100461.84;;;-0.23;56.95
12666;BME280;58531;59.050;17.416;2023-02-10T04:00:54;100477.19;;;-0.29;56.13
12666;BME280;58531;59.050;17.416;2023-02-10T04:03:21;100475.63;;;-0.40;56.82
12666;BME280;58531;59.050;17.416;2023-02-10T04:05:48;100481.59;;;-0.43;56.84
12666;BME280;58531;59.050;17.416;2023-02-10T04:08:15;100489.81;;;-0.45;57.49
12666;BME280;58531;59.050;17.416;2023-02-10T04:10:41;100496.16;;;-0.49;56.53
12666;BME280;58531;59.050;17.416;2023-02-10T04:13:10;100510.78;;;-0.45;56.24
12666;BME280;58531;59.050;17.416;2023-02-10T04:15:36;100514.53;;;-0.46;57.88
12666;BME280;58531;59.050;17.416;2023-02-10T04:18:03;100510.66;;;-0.62;58.40
12666;BME280;58531;59.050;17.416;2023-02-10T04:20:30;100514.31;;;-0.70;58.33
12666;BME280;58531;59.050;17.416;2023-02-10T04:22:57;100509.19;;;-0.60;57.80
12666;BME280;58531;59.050;17.416;2023-02-10T04:25:24;100512.22;;;-0.54;58.37
12666;BME280;58531;59.050;17.416;2023-02-10T04:27:51;100509.59;;;-0.58;57.87
12666;BME280;58531;59.050;17.416;2023-02-10T04:30:19;100521.66;;;-0.46;57.17
12666;BME280;58531;59.050;17.416;2023-02-10T04:32:46;100520.50;;;-0.49;57.78
12666;BME280;58531;59.050;17.416;2023-02-10T04:35:13;100524.53;;;-0.62;58.36
12666;BME280;58531;59.050;17.416;2023-02-10T04:37:40;100514.38;;;-0.63;58.08
12666;BME280;58531;59.050;17.416;2023-02-10T04:40:07;100516.03;;;-0.48;56.29
12666;BME280;58531;59.050;17.416;2023-02-10T04:42:34;100525.00;;;-0.53;58.47
12666;BME280;58531;59.050;17.416;2023-02-10T04:45:01;100534.72;;;-0.53;57.19
12666;BME280;58531;59.050;17.416;2023-02-10T04:47:29;100537.72;;;-0.51;56.65
12666;BME280;58531;59.050;17.416;2023-02-10T04:49:56;100527.22;;;-0.55;57.86
12666;BME280;58531;59.050;17.416;2023-02-10T04:52:23;100528.63;;;-0.64;56.93
12666;BME280;58531;59.050;17.416;2023-02-10T04:54:50;100521.94;;;-0.58;57.37
12666;BME280;58531;59.050;17.416;2023-02-10T04:57:17;100541.53;;;-0.45;56.76
12666;BME280;58531;59.050;17.416;2023-02-10T04:59:44;100538.31;;;-0.68;58.27
12666;BME280;58531;59.050;17.416;2023-02-10T05:02:10;100549.53;;;-0.71;57.81
12666;BME280;58531;59.050;17.416;2023-02-10T05:04:39;100551.81;;;-0.66;57.15
12666;BME280;58531;59.050;17.416;2023-02-10T05:07:06;100571.22;;;-0.74;57.99
12666;BME280;58531;59.050;17.416;2023-02-10T05:09:32;100572.00;;;-0.70;58.14
12666;BME280;58531;59.050;17.416;2023-02-10T05:11:59;100596.88;;;-0.57;56.36
12666;BME280;58531;59.050;17.416;2023-02-10T05:14:26;100596.34;;;-0.33;55.48
12666;BME280;58531;59.050;17.416;2023-02-10T05:16:53;100614.19;;;-0.46;55.88
12666;BME280;58531;59.050;17.416;2023-02-10T05:19:20;100615.00;;;-0.42;55.16
12666;BME280;58531;59.050;17.416;2023-02-10T05:21:48;100619.50;;;-0.42;55.86
12666;BME280;58531;59.050;17.416;2023-02-10T05:24:15;100626.81;;;-0.62;57.01
12666;BME280;58531;59.050;17.416;2023-02-10T05:26:42;100621.78;;;-0.77;57.88
12666;BME280;58531;59.050;17.416;2023-02-10T05:29:09;100613.66;;;-0.98;58.97
12666;BME280;58531;59.050;17.416;2023-02-10T05:31:36;100625.34;;;-0.92;58.95
12666;BME280;58531;59.050;17.416;2023-02-10T05:34:02;100627.97;;;-0.89;57.82
12666;BME280;58531;59.050;17.416;2023-02-10T05:36:29;100632.31;;;-1.03;59.64
12666;BME280;58531;59.050;17.416;2023-02-10T05:38:57;100638.13;;;-0.87;57.71
12666;BME280;58531;59.050;17.416;2023-02-10T05:41:42;100633.91;;;-0.95;58.28
12666;BME280;58531;59.050;17.416;2023-02-10T05:44:09;100648.34;;;-0.75;56.52
12666;BME280;58531;59.050;17.416;2023-02-10T05:46:35;100640.97;;;-0.66;55.58
12666;BME280;58531;59.050;17.416;2023-02-10T05:49:02;100655.50;;;-0.72;56.24
12666;BME280;58531;59.050;17.416;2023-02-10T05:51:29;100661.41;;;-0.82;57.80
12666;BME280;58531;59.050;17.416;2023-02-10T05:53:57;100662.44;;;-0.90;57.63
12666;BME280;58531;59.050;17.416;2023-02-10T05:56:24;100673.31;;;-0.88;57.49
12666;BME280;58531;59.050;17.416;2023-02-10T05:58:51;100665.06;;;-0.90;57.57
12666;BME280;58531;59.050;17.416;2023-02-10T06:01:18;100671.31;;;-0.98;56.78
12666;BME280;58531;59.050;17.416;2023-02-10T06:03:45;100682.69;;;-0.87;56.90
12666;BME280;58531;59.050;17.416;2023-02-10T06:06:11;100685.88;;;-1.01;58.11
12666;BME280;58531;59.050;17.416;2023-02-10T06:08:39;100683.63;;;-1.02;57.21
12666;BME280;58531;59.050;17.416;2023-02-10T06:11:07;100700.66;;;-1.15;57.67
12666;BME280;58531;59.050;17.416;2023-02-10T06:13:34;100722.13;;;-1.06;57.55
12666;BME280;58531;59.050;17.416;2023-02-10T06:16:02;100720.31;;;-1.02;57.58
12666;BME280;58531;59.050;17.416;2023-02-10T06:18:29;100729.63;;;-1.05;58.32
12666;BME280;58531;59.050;17.416;2023-02-10T06:20:56;100734.22;;;-0.98;56.37
12666;BME280;58531;59.050;17.416;2023-02-10T06:23:23;100746.19;;;-0.97;57.69
12666;BME280;58531;59.050;17.416;2023-02-10T06:25:50;100740.97;;;-0.97;57.18
12666;BME280;58531;59.050;17.416;2023-02-10T06:28:21;100739.81;;;-0.70;55.56
12666;BME280;58531;59.050;17.416;2023-02-10T06:30:48;100759.81;;;-0.88;56.57
12666;BME280;58531;59.050;17.416;2023-02-10T06:33:15;100761.97;;;-0.94;56.93
12666;BME280;58531;59.050;17.416;2023-02-10T06:35:42;100777.19;;;-0.77;55.46
12666;BME280;58531;59.050;17.416;2023-02-10T06:38:09;100775.13;;;-0.90;56.54
12666;BME280;58531;59.050;17.416;2023-02-10T06:40:36;100799.44;;;-0.93;56.62
12666;BME280;58531;59.050;17.416;2023-02-10T06:43:04;100787.16;;;-0.86;56.41
12666;BME280;58531;59.050;17.416;2023-02-10T06:45:32;100797.22;;;-0.91;56.85
12666;BME280;58531;59.050;17.416;2023-02-10T06:48:00;100807.19;;;-1.00;57.28
12666;BME280;58531;59.050;17.416;2023-02-10T06:50:27;100811.41;;;-0.92;55.98
12666;BME280;58531;59.050;17.416;2023-02-10T06:52:53;100822.53;;;-0.99;57.59
12666;BME280;58531;59.050;17.416;2023-02-10T06:55:20;100820.50;;;-0.86;57.66
12666;BME280;58531;59.050;17.416;2023-02-10T06:57:47;100829.38;;;-0.94;57.08
12666;BME280;58531;59.050;17.416;2023-02-10T07:00:15;100835.91;;;-1.07;57.24
12666;BME280;58531;59.050;17.416;2023-02-10T07:02:43;100860.78;;;-0.72;55.44
12666;BME280;58531;59.050;17.416;2023-02-10T07:05:10;100863.66;;;-0.54;55.02
12666;BME280;58531;59.050;17.416;2023-02-10T07:07:37;100866.53;;;-0.63;55.66
12666;BME280;58531;59.050;17.416;2023-02-10T07:10:05;100875.63;;;-0.57;55.35
12666;BME280;58531;59.050;17.416;2023-02-10T07:12:32;100884.81;;;-0.66;55.59
12666;BME280;58531;59.050;17.416;2023-02-10T07:14:59;100883.28;;;-0.71;56.99
12666;BME280;58531;59.050;17.416;2023-02-10T07:17:25;100884.22;;;-0.82;57.19
12666;BME280;58531;59.050;17.416;2023-02-10T07:19:54;100894.16;;;-0.69;55.82
12666;BME280;58531;59.050;17.416;2023-02-10T07:22:20;100903.19;;;-0.66;56.23
12666;BME280;58531;59.050;17.416;2023-02-10T07:24:47;100910.00;;;-0.62;55.98
12666;BME280;58531;59.050;17.416;2023-02-10T07:27:14;100913.28;;;-0.42;54.72
12666;BME280;58531;59.050;17.416;2023-02-10T07:29:41;100914.69;;;-0.48;56.10
12666;BME280;58531;59.050;17.416;2023-02-10T07:32:08;100923.56;;;-0.56;56.50
12666;BME280;58531;59.050;17.416;2023-02-10T07:34:34;100927.16;;;-0.68;57.61
12666;BME280;58531;59.050;17.416;2023-02-10T07:37:03;100921.25;;;-0.61;56.63
12666;BME280;58531;59.050;17.416;2023-02-10T07:39:29;100945.78;;;-0.73;57.79
12666;BME280;58531;59.050;17.416;2023-02-10T07:41:56;100954.19;;;-0.64;57.28
12666;BME280;58531;59.050;17.416;2023-02-10T07:44:24;100953.53;;;-0.57;56.96
12666;BME280;58531;59.050;17.416;2023-02-10T07:46:51;100960.69;;;-0.54;56.35
12666;BME280;58531;59.050;17.416;2023-02-10T07:49:18;100962.66;;;-0.48;56.32
12666;BME280;58531;59.050;17.416;2023-02-10T07:51:45;100972.09;;;-0.43;55.54
12666;BME280;58531;59.050;17.416;2023-02-10T07:54:14;100983.72;;;-0.44;55.75
12666;BME280;58531;59.050;17.416;2023-02-10T07:56:40;100988.28;;;-0.38;56.17
12666;BME280;58531;59.050;17.416;2023-02-10T07:59:07;101001.28;;;-0.22;55.51
12666;BME280;58531;59.050;17.416;2023-02-10T08:01:34;100992.28;;;-0.21;54.84
12666;BME280;58531;59.050;17.416;2023-02-10T08:04:06;101002.69;;;-0.28;55.67
12666;BME280;58531;59.050;17.416;2023-02-10T08:06:32;101011.69;;;-0.29;56.73
12666;BME280;58531;59.050;17.416;2023-02-10T08:08:59;101021.28;;;-0.37;56.36
12666;BME280;58531;59.050;17.416;2023-02-10T08:11:27;101026.09;;;-0.16;54.94
12666;BME280;58531;59.050;17.416;2023-02-10T08:13:54;101039.84;;;-0.26;57.09
12666;BME280;58531;59.050;17.416;2023-02-10T08:16:21;101031.91;;;-0.30;56.72
12666;BME280;58531;59.050;17.416;2023-02-10T08:18:48;101033.47;;;-0.25;56.57
12666;BME280;58531;59.050;17.416;2023-02-10T08:21:14;101038.22;;;-0.08;54.49
12666;BME280;58531;59.050;17.416;2023-02-10T08:23:41;101031.56;;;-0.03;55.46
12666;BME280;58531;59.050;17.416;2023-02-10T08:26:10;101055.72;;;0.06;54.18
12666;BME280;58531;59.050;17.416;2023-02-10T08:28:41;101048.19;;;0.05;55.15
12666;BME280;58531;59.050;17.416;2023-02-10T08:31:08;101059.75;;;0.00;56.31
12666;BME280;58531;59.050;17.416;2023-02-10T08:33:36;101056.75;;;0.02;54.43
12666;BME280;58531;59.050;17.416;2023-02-10T08:36:04;101075.13;;;0.02;55.89
12666;BME280;58531;59.050;17.416;2023-02-10T08:38:31;101073.97;;;-0.01;55.91
12666;BME280;58531;59.050;17.416;2023-02-10T08:40:58;101078.13;;;0.00;56.11
12666;BME280;58531;59.050;17.416;2023-02-10T08:43:25;101093.50;;;0.24;53.81
12666;BME280;58531;59.050;17.416;2023-02-10T08:45:56;101091.25;;;0.26;55.12
12666;BME280;58531;59.050;17.416;2023-02-10T08:48:23;101091.66;;;0.28;54.28
12666;BME280;58531;59.050;17.416;2023-02-10T08:50:50;101098.00;;;0.27;55.50
12666;BME280;58531;59.050;17.416;2023-02-10T08:53:18;101106.22;;;0.22;55.25
12666;BME280;58531;59.050;17.416;2023-02-10T08:55:54;101106.81;;;0.38;53.22
12666;BME280;58531;59.050;17.416;2023-02-10T08:58:21;101110.22;;;0.39;54.48
12666;BME280;58531;59.050;17.416;2023-02-10T09:00:48;101107.28;;;0.44;53.54
12666;BME280;58531;59.050;17.416;2023-02-10T09:03:17;101116.38;;;0.50;52.97
12666;BME280;58531;59.050;17.416;2023-02-10T09:05:44;101109.69;;;0.56;52.67
12666;BME280;58531;59.050;17.416;2023-02-10T09:08:11;101130.34;;;0.57;52.52
12666;BME280;58531;59.050;17.416;2023-02-10T09:10:39;101123.28;;;0.61;52.60
12666;BME280;58531;59.050;17.416;2023-02-10T09:13:06;101129.97;;;0.55;55.27
12666;BME280;58531;59.050;17.416;2023-02-10T09:15:36;101142.09;;;0.63;53.19
12666;BME280;58531;59.050;17.416;2023-02-10T09:18:03;101139.16;;;0.68;52.80
12666;BME280;58531;59.050;17.416;2023-02-10T09:20:31;101152.84;;;0.81;52.46
12666;BME280;58531;59.050;17.416;2023-02-10T09:22:58;101146.09;;;0.83;52.16
12666;BME280;58531;59.050;17.416;2023-02-10T09:25:25;101146.72;;;0.73;53.63
12666;BME280;58531;59.050;17.416;2023-02-10T09:27:52;101151.34;;;0.83;53.31
12666;BME280;58531;59.050;17.416;2023-02-10T09:30:22;101162.56;;;0.80;54.01
12666;BME280;58531;59.050;17.416;2023-02-10T09:32:49;101153.56;;;0.81;53.33
12666;BME280;58531;59.050;17.416;2023-02-10T09:35:16;101161.13;;;0.83;52.60
12666;BME280;58531;59.050;17.416;2023-02-10T09:37:44;101172.78;;;0.85;52.92
12666;BME280;58531;59.050;17.416;2023-02-10T09:40:16;101177.34;;;0.88;53.08
12666;BME280;58531;59.050;17.416;2023-02-10T09:42:56;101181.63;;;1.00;51.75
12666;BME280;58531;59.050;17.416;2023-02-10T09:45:33;101174.22;;;1.09;51.86
12666;BME280;58531;59.050;17.416;2023-02-10T09:48:09;101186.97;;;1.07;52.12
12666;BME280;58531;59.050;17.416;2023-02-10T09:50:49;101191.88;;;1.08;52.95
12666;BME280;58531;59.050;17.416;2023-02-10T09:53:21;101192.78;;;1.19;50.35
12666;BME280;58531;59.050;17.416;2023-02-10T09:55:53;101191.69;;;1.23;51.21
12666;BME280;58531;59.050;17.416;2023-02-10T09:58:28;101201.88;;;1.25;52.38
12666;BME280;58531;59.050;17.416;2023-02-10T10:01:01;101200.75;;;1.26;51.05
12666;BME280;58531;59.050;17.416;2023-02-10T10:03:34;101205.69;;;1.31;50.64
12666;BME280;58531;59.050;17.416;2023-02-10T10:06:10;101198.50;;;1.28;52.06
12666;BME280;58531;59.050;17.416;2023-02-10T10:08:47;101203.84;;;1.35;50.04
12666;BME280;58531;59.050;17.416;2023-02-10T10:11:23;101218.13;;;1.34;50.94
12666;BME280;58531;59.050;17.416;2023-02-10T10:13:50;101218.19;;;1.37;50.36
12666;BME280;58531;59.050;17.416;2023-02-10T10:16:25;101213.66;;;1.38;49.79
12666;BME280;58531;59.050;17.416;2023-02-10T10:19:06;101206.25;;;1.47;49.43
12666;BME280;58531;59.050;17.416;2023-02-10T10:21:45;101220.53;;;1.46;50.80
12666;BME280;58531;59.050;17.416;2023-02-10T10:24:28;101221.31;;;1.46;49.62
12666;BME280;58531;59.050;17.416;2023-02-10T10:27:05;101219.50;;;1.54;49.21
12666;BME280;58531;59.050;17.416;2023-02-10T10:29:41;101208.56;;;1.52;50.14
12666;BME280;58531;59.050;17.416;2023-02-10T10:32:14;101214.56;;;1.49;49.46
12666;BME280;58531;59.050;17.416;2023-02-10T10:34:48;101211.22;;;1.55;50.24
12666;BME280;58531;59.050;17.416;2023-02-10T10:37:18;101214.63;;;1.56;49.64
12666;BME280;58531;59.050;17.416;2023-02-10T10:39:49;101196.59;;;1.58;50.80
12666;BME280;58531;59.050;17.416;2023-02-10T10:42:20;101197.41;;;1.62;48.70
12666;BME280;58531;59.050;17.416;2023-02-10T10:44:50;101203.41;;;1.62;50.81
12666;BME280;58531;59.050;17.416;2023-02-10T10:47:20;101206.03;;;1.59;48.20
12666;BME280;58531;59.050;17.416;2023-02-10T10:49:48;101202.31;;;1.63;49.02
12666;BME280;58531;59.050;17.416;2023-02-10T10:52:25;101201.56;;;1.63;48.42
12666;BME280;58531;59.050;17.416;2023-02-10T10:54:54;101217.69;;;1.61;47.27
12666;BME280;58531;59.050;17.416;2023-02-10T10:57:22;101222.94;;;1.58;48.16
12666;BME280;58531;59.050;17.416;2023-02-10T10:59:52;101218.53;;;1.69;47.90
12666;BME280;58531;59.050;17.416;2023-02-10T11:02:22;101220.91;;;1.81;46.47
12666;BME280;58531;59.050;17.416;2023-02-10T11:04:59;101227.34;;;1.83;47.70
12666;BME280;58531;59.050;17.416;2023-02-10T11:07:28;101219.16;;;1.92;46.30
12666;BME280;58531;59.050;17.416;2023-02-10T11:09:59;101219.88;;;1.89;45.58
12666;BME280;58531;59.050;17.416;2023-02-10T11:12:31;101224.41;;;1.92;46.11
12666;BME280;58531;59.050;17.416;2023-02-10T11:15:00;101219.88;;;1.89;46.08
12666;BME280;58531;59.050;17.416;2023-02-10T11:17:32;101208.63;;;1.92;47.93
12666;BME280;58531;59.050;17.416;2023-02-10T11:20:20;101215.31;;;1.86;47.17
12666;BME280;58531;59.050;17.416;2023-02-10T11:22:55;101217.44;;;1.73;47.17
12666;BME280;58531;59.050;17.416;2023-02-10T11:25:28;101210.25;;;1.67;46.84
12666;BME280;58531;59.050;17.416;2023-02-10T11:27:56;101223.00;;;1.65;47.31
12666;BME280;58531;59.050;17.416;2023-02-10T11:30:25;101219.28;;;1.69;47.45
12666;BME280;58531;59.050;17.416;2023-02-10T11:32:53;101208.53;;;1.85;48.20
12666;BME280;58531;59.050;17.416;2023-02-10T11:35:20;101203.78;;;1.97;46.75
12666;BME280;58531;59.050;17.416;2023-02-10T11:37:52;101213.69;;;2.11;47.23
12666;BME280;58531;59.050;17.416;2023-02-10T11:40:22;101207.72;;;2.17;45.04
12666;BME280;58531;59.050;17.416;2023-02-10T11:42:54;101211.53;;;2.20;45.58
12666;BME280;58531;59.050;17.416;2023-02-10T11:45:23;101209.56;;;2.13;46.24
12666;BME280;58531;59.050;17.416;2023-02-10T11:48:00;101212.66;;;2.19;46.28
12666;BME280;58531;59.050;17.416;2023-02-10T11:50:30;101217.59;;;2.24;45.87
12666;BME280;58531;59.050;17.416;2023-02-10T11:52:57;101224.00;;;2.29;46.26
12666;BME280;58531;59.050;17.416;2023-02-10T11:55:30;101216.63;;;2.45;46.97
12666;BME280;58531;59.050;17.416;2023-02-10T11:58:32;101215.63;;;2.64;45.82
12666;BME280;58531;59.050;17.416;2023-02-10T12:01:19;101221.72;;;2.71;45.35
12666;BME280;58531;59.050;17.416;2023-02-10T12:03:57;101221.72;;;2.71;45.18
12666;BME280;58531;59.050;17.416;2023-02-10T12:06:32;101214.59;;;2.79;46.69
12666;BME280;58531;59.050;17.416;2023-02-10T12:09:05;101227.09;;;2.89;45.58
12666;BME280;58531;59.050;17.416;2023-02-10T12:11:42;101218.81;;;2.90;46.29
12666;BME280;58531;59.050;17.416;2023-02-10T12:14:28;101225.94;;;2.86;44.43
12666;BME280;58531;59.050;17.416;2023-02-10T12:17:03;101218.03;;;2.83;45.81
12666;BME280;58531;59.050;17.416;2023-02-10T12:19:39;101228.16;;;2.77;46.21
12666;BME280;58531;59.050;17.416;2023-02-10T12:22:14;101219.53;;;2.80;46.00
12666;BME280;58531;59.050;17.416;2023-02-10T12:25:03;101224.03;;;2.80;45.95
12666;BME280;58531;59.050;17.416;2023-02-10T12:27:51;101229.25;;;2.73;46.59
12666;BME280;58531;59.050;17.416;2023-02-10T12:30:34;101220.25;;;2.77;46.14
12666;BME280;58531;59.050;17.416;2023-02-10T12:33:26;101223.19;;;2.65;45.69
12666;BME280;58531;59.050;17.416;2023-02-10T12:36:06;101232.53;;;2.59;45.96
12666;BME280;58531;59.050;17.416;2023-02-10T12:38:53;101229.91;;;2.59;44.48
12666;BME280;58531;59.050;17.416;2023-02-10T12:41:27;101240.06;;;2.57;45.08
12666;BME280;58531;59.050;17.416;2023-02-10T12:44:09;101234.06;;;2.60;44.79
12666;BME280;58531;59.050;17.416;2023-02-10T12:46:46;101233.28;;;2.56;44.55
12666;BME280;58531;59.050;17.416;2023-02-10T12:49:25;101241.16;;;2.53;45.07
12666;BME280;58531;59.050;17.416;2023-02-10T12:52:04;101243.44;;;2.54;44.68
12666;BME280;58531;59.050;17.416;2023-02-10T12:54:40;101226.09;;;2.50;44.95
12666;BME280;58531;59.050;17.416;2023-02-10T12:57:13;101227.16;;;2.42;43.92
12666;BME280;58531;59.050;17.416;2023-02-10T12:59:49;101242.44;;;2.29;44.18